createdAt,value
2018-09-10T00:01:39.751Z,16.38
2018-09-10T00:04:08.975Z,16.36
2018-09-10T00:06:38.230Z,16.26
2018-09-10T00:09:09.055Z,16.15
2018-09-10T00:11:39.041Z,16.02
2018-09-10T00:14:08.139Z,16.02
2018-09-10T00:16:37.338Z,16.02
2018-09-10T00:19:06.274Z,16.00
2018-09-10T00:21:35.329Z,16.01
2018-09-10T00:24:04.396Z,16.01
2018-09-10T00:26:33.430Z,16.04
2018-09-10T00:29:02.483Z,16.10
2018-09-10T00:31:31.691Z,16.16
2018-09-10T00:34:00.967Z,16.14
2018-09-10T00:36:30.174Z,16.13
2018-09-10T00:38:59.312Z,16.08
2018-09-10T00:41:28.327Z,16.00
2018-09-10T00:43:57.371Z,15.97
2018-09-10T00:46:26.390Z,15.94
2018-09-10T00:48:55.418Z,15.92
2018-09-10T00:51:24.254Z,15.94
2018-09-10T00:53:53.163Z,15.99
2018-09-10T00:56:22.406Z,16.00
2018-09-10T00:58:51.559Z,16.02
2018-09-10T01:01:20.868Z,16.01
2018-09-10T01:03:50.690Z,15.92
2018-09-10T01:06:19.581Z,15.94
2018-09-10T01:08:48.372Z,15.89
2018-09-10T01:11:17.722Z,15.86
2018-09-10T01:13:46.767Z,15.89
2018-09-10T01:16:15.759Z,15.89
2018-09-10T01:18:45.231Z,15.90
2018-09-10T01:21:14.142Z,15.87
2018-09-10T01:23:43.022Z,15.81
2018-09-10T01:26:12.382Z,15.83
2018-09-10T01:28:41.343Z,15.76
2018-09-10T01:31:10.315Z,15.75
2018-09-10T01:33:44.613Z,15.76
2018-09-10T01:36:13.734Z,15.68
2018-09-10T01:38:42.628Z,15.63
2018-09-10T01:41:12.076Z,15.67
2018-09-10T01:43:41.333Z,15.67
2018-09-10T01:46:10.324Z,15.67
2018-09-10T01:48:40.110Z,15.64
2018-09-10T01:51:09.175Z,15.63
2018-09-10T01:53:38.150Z,15.47
2018-09-10T01:56:07.253Z,15.52
2018-09-10T01:58:36.134Z,15.33
2018-09-10T02:01:05.220Z,15.44
2018-09-10T02:03:34.447Z,15.45
2018-09-10T02:06:03.458Z,15.44
2018-09-10T02:08:32.422Z,15.42
2018-09-10T02:11:01.832Z,15.38
2018-09-10T02:13:31.023Z,15.39
2018-09-10T02:16:00.027Z,15.34
2018-09-10T02:18:28.954Z,15.28
2018-09-10T02:20:58.006Z,15.34
2018-09-10T02:23:28.185Z,15.28
2018-09-10T02:25:57.765Z,15.25
2018-09-10T02:28:26.736Z,15.23
2018-09-10T02:30:55.718Z,15.20
2018-09-10T02:33:24.938Z,15.22
2018-09-10T02:35:53.934Z,15.19
2018-09-10T02:38:23.151Z,15.17
2018-09-10T02:40:52.062Z,15.13
2018-09-10T02:43:21.113Z,15.10
2018-09-10T02:45:50.113Z,15.06
2018-09-10T02:48:19.538Z,15.06
2018-09-10T02:50:48.524Z,15.07
2018-09-10T02:53:17.607Z,15.03
2018-09-10T02:55:47.026Z,15.02
2018-09-10T02:58:16.120Z,15.00
2018-09-10T03:00:44.990Z,15.01
2018-09-10T03:03:14.027Z,15.05
2018-09-10T03:05:42.802Z,15.03
2018-09-10T03:08:11.990Z,15.01
2018-09-10T03:10:41.354Z,15.00
2018-09-10T03:13:10.383Z,14.94
2018-09-10T03:15:39.387Z,14.91
2018-09-10T03:18:08.940Z,14.91
2018-09-10T03:20:37.866Z,14.92
2018-09-10T03:23:07.078Z,15.00
2018-09-10T03:25:36.585Z,14.98
2018-09-10T03:28:05.506Z,14.92
2018-09-10T03:30:34.372Z,14.86
2018-09-10T03:33:03.540Z,14.81
2018-09-10T03:35:32.351Z,14.81
2018-09-10T03:38:01.655Z,14.79
2018-09-10T03:40:30.678Z,14.78
2018-09-10T03:42:59.760Z,14.79
2018-09-10T03:45:28.735Z,14.81
2018-09-10T03:47:58.063Z,14.80
2018-09-10T03:50:27.340Z,14.81
2018-09-10T03:52:56.222Z,14.74
2018-09-10T03:55:25.368Z,14.75
2018-09-10T03:57:54.336Z,14.80
2018-09-10T04:00:23.755Z,14.79
2018-09-10T04:02:53.166Z,14.75
2018-09-10T04:05:22.240Z,14.74
2018-09-10T04:07:51.349Z,14.79
2018-09-10T04:10:20.675Z,14.84
2018-09-10T04:12:49.752Z,14.95
2018-09-10T04:15:18.915Z,15.13
2018-09-10T04:17:48.062Z,15.44
2018-09-10T04:20:16.922Z,15.91
2018-09-10T04:22:46.223Z,16.38
2018-09-10T04:25:15.847Z,16.98
2018-09-10T04:27:44.933Z,17.40
2018-09-10T04:30:15.455Z,17.46
2018-09-10T04:32:44.852Z,17.30
2018-09-10T04:35:13.915Z,17.54
2018-09-10T04:37:42.965Z,18.33
2018-09-10T04:40:12.323Z,18.76
2018-09-10T04:42:41.552Z,18.98
2018-09-10T04:45:11.037Z,19.52
2018-09-10T04:47:40.399Z,19.99
2018-09-10T04:50:09.558Z,20.34
2018-09-10T04:52:38.558Z,20.27
2018-09-10T04:55:07.934Z,20.37
2018-09-10T04:57:36.936Z,20.42
2018-09-10T05:00:06.573Z,19.80
2018-09-10T05:02:36.136Z,19.60
2018-09-10T05:05:05.174Z,19.46
2018-09-10T05:07:34.275Z,19.43
2018-09-10T05:10:03.927Z,19.48
2018-09-10T05:12:32.981Z,19.35
2018-09-10T05:15:01.880Z,19.60
2018-09-10T05:17:31.291Z,20.29
2018-09-10T05:20:00.449Z,21.04
2018-09-10T05:22:29.471Z,21.87
2018-09-10T05:24:59.016Z,22.03
2018-09-10T05:27:27.858Z,22.32
2018-09-10T05:29:56.921Z,22.37
2018-09-10T05:32:26.380Z,22.20
2018-09-10T05:34:55.466Z,22.76
2018-09-10T05:37:24.458Z,23.32
2018-09-10T05:39:53.591Z,23.50
2018-09-10T05:42:22.657Z,24.13
2018-09-10T05:44:51.949Z,24.97
2018-09-10T05:47:21.258Z,25.65
2018-09-10T05:49:50.147Z,25.99
2018-09-10T05:52:19.126Z,26.82
2018-09-10T05:54:48.151Z,27.92
2018-09-10T05:57:17.216Z,28.56
2018-09-10T05:59:46.362Z,28.95
2018-09-10T06:02:15.767Z,29.38
2018-09-10T06:04:45.019Z,29.86
2018-09-10T06:07:14.025Z,30.14
2018-09-10T06:09:43.386Z,29.33
2018-09-10T06:12:12.595Z,28.57
2018-09-10T06:14:41.431Z,27.32
2018-09-10T06:17:10.339Z,25.87
2018-09-10T06:19:39.603Z,25.60
2018-09-10T06:22:08.611Z,26.24
2018-09-10T06:24:38.158Z,26.95
2018-09-10T06:27:07.232Z,27.76
2018-09-10T06:29:36.407Z,28.40
2018-09-10T06:32:05.963Z,28.00
2018-09-10T06:34:35.007Z,28.83
2018-09-10T06:37:03.944Z,29.40
2018-09-10T06:39:32.790Z,30.12
2018-09-10T06:42:02.077Z,30.71
2018-09-10T06:44:30.961Z,30.49
2018-09-10T06:47:00.544Z,30.81
2018-09-10T06:49:29.591Z,31.53
2018-09-10T06:51:58.665Z,30.91
2018-09-10T06:54:27.807Z,30.89
2018-09-10T06:56:56.767Z,30.87
2018-09-10T06:59:25.758Z,30.91
2018-09-10T07:01:55.179Z,30.86
2018-09-10T07:04:24.584Z,30.27
2018-09-10T07:06:53.687Z,29.50
2018-09-10T07:09:22.959Z,29.35
2018-09-10T07:11:51.979Z,29.20
2018-09-10T07:14:20.977Z,28.61
2018-09-10T07:16:50.163Z,27.95
2018-09-10T07:19:19.244Z,27.26
2018-09-10T07:21:48.475Z,26.13
2018-09-10T07:24:17.841Z,25.15
2018-09-10T07:26:46.869Z,24.45
2018-09-10T07:29:15.864Z,24.93
2018-09-10T07:31:45.691Z,25.79
2018-09-10T07:34:14.689Z,26.42
2018-09-10T07:36:43.867Z,26.57
2018-09-10T07:39:13.699Z,26.90
2018-09-10T07:41:42.800Z,27.55
2018-09-10T07:44:11.563Z,27.75
2018-09-10T07:46:41.412Z,28.24
2018-09-10T07:49:10.472Z,28.07
2018-09-10T07:51:39.375Z,28.40
2018-09-10T07:54:08.767Z,28.45
2018-09-10T07:56:37.884Z,28.74
2018-09-10T07:59:07.027Z,29.08
2018-09-10T08:01:36.151Z,28.95
2018-09-10T08:04:05.549Z,29.43
2018-09-10T08:06:34.693Z,29.26
2018-09-10T08:09:04.181Z,28.63
2018-09-10T08:11:33.170Z,28.49
2018-09-10T08:14:02.147Z,28.94
2018-09-10T08:16:31.614Z,28.34
2018-09-10T08:19:00.551Z,28.09
2018-09-10T08:21:29.545Z,28.98
2018-09-10T08:23:59.007Z,28.60
2018-09-10T08:26:28.315Z,28.92
2018-09-10T08:28:57.544Z,28.27
2018-09-10T08:31:26.701Z,28.79
2018-09-10T08:33:55.969Z,28.42
2018-09-10T08:36:25.115Z,27.98
2018-09-10T08:38:54.374Z,27.21
2018-09-10T08:41:23.535Z,25.89
2018-09-10T08:43:52.626Z,26.30
2018-09-10T08:46:22.175Z,25.81
2018-09-10T08:48:51.435Z,25.14
2018-09-10T08:51:20.424Z,25.73
2018-09-10T08:53:49.383Z,25.78
2018-09-10T08:56:18.699Z,25.14
2018-09-10T08:58:47.632Z,24.60
2018-09-10T09:01:16.959Z,24.08
2018-09-10T09:03:45.830Z,24.34
2018-09-10T09:06:14.961Z,24.66
2018-09-10T09:08:44.255Z,24.90
2018-09-10T09:11:13.542Z,25.23
2018-09-10T09:13:42.423Z,25.93
2018-09-10T09:16:11.429Z,26.74
2018-09-10T09:18:40.437Z,26.68
2018-09-10T09:21:09.923Z,26.73
2018-09-10T09:23:38.976Z,26.49
2018-09-10T09:26:08.053Z,26.33
2018-09-10T09:28:37.007Z,26.21
2018-09-10T09:31:06.526Z,25.57
2018-09-10T09:33:35.515Z,25.14
2018-09-10T09:36:10.125Z,25.20
2018-09-10T09:38:44.383Z,25.45
2018-09-10T09:41:18.628Z,26.00
2018-09-10T09:43:52.811Z,26.36
2018-09-10T09:46:21.922Z,26.49
2018-09-10T09:48:50.917Z,26.27
2018-09-10T09:51:19.873Z,26.27
2018-09-10T09:53:49.296Z,26.01
2018-09-10T09:56:18.559Z,25.98
2018-09-10T09:58:47.543Z,26.16
2018-09-10T10:01:24.141Z,26.65
2018-09-10T10:03:53.411Z,26.63
2018-09-10T10:06:23.162Z,26.54
2018-09-10T10:08:52.582Z,26.97
2018-09-10T10:11:21.845Z,27.01
2018-09-10T10:13:51.513Z,26.76
2018-09-10T10:16:20.920Z,27.09
2018-09-10T10:18:49.770Z,27.02
2018-09-10T10:21:18.971Z,26.96
2018-09-10T10:23:48.206Z,26.76
2018-09-10T10:26:17.339Z,26.74
2018-09-10T10:28:46.355Z,26.29
2018-09-10T10:31:15.085Z,25.83
2018-09-10T10:33:44.443Z,25.56
2018-09-10T10:36:13.655Z,25.47
2018-09-10T10:38:43.491Z,25.21
2018-09-10T10:41:12.582Z,24.99
2018-09-10T10:43:41.771Z,25.29
2018-09-10T10:46:11.383Z,25.25
2018-09-10T10:48:40.380Z,25.53
2018-09-10T10:51:09.447Z,25.73
2018-09-10T10:53:38.784Z,25.76
2018-09-10T10:56:07.868Z,25.85
2018-09-10T10:58:36.853Z,26.09
2018-09-10T11:01:06.170Z,26.18
2018-09-10T11:03:35.252Z,26.39
2018-09-10T11:06:04.352Z,26.31
2018-09-10T11:08:33.666Z,26.25
2018-09-10T11:11:02.725Z,26.30
2018-09-10T11:13:31.584Z,26.24
2018-09-10T11:16:00.799Z,26.43
2018-09-10T11:18:29.739Z,26.21
2018-09-10T11:20:58.712Z,25.72
2018-09-10T11:23:28.147Z,25.53
2018-09-10T11:25:57.440Z,25.39
2018-09-10T11:28:26.540Z,25.34
2018-09-10T11:30:55.863Z,25.27
2018-09-10T11:33:24.835Z,25.69
2018-09-10T11:35:53.929Z,25.81
2018-09-10T11:38:23.278Z,25.59
2018-09-10T11:40:52.499Z,25.74
2018-09-10T11:43:21.779Z,25.96
2018-09-10T11:45:51.286Z,26.23
2018-09-10T11:48:20.406Z,26.30
2018-09-10T11:50:49.399Z,26.33
2018-09-10T11:53:18.838Z,26.26
2018-09-10T11:55:48.003Z,26.14
2018-09-10T11:58:17.114Z,26.03
2018-09-10T12:00:46.454Z,26.27
2018-09-10T12:03:15.619Z,26.51
2018-09-10T12:05:44.629Z,26.17
2018-09-10T12:08:14.161Z,25.98
2018-09-10T12:10:43.358Z,26.17
2018-09-10T12:13:12.843Z,26.28
2018-09-10T12:15:42.219Z,26.08
2018-09-10T12:18:11.150Z,25.71
2018-09-10T12:20:40.110Z,25.79
2018-09-10T12:23:09.491Z,25.81
2018-09-10T12:25:38.530Z,26.06
2018-09-10T12:28:07.422Z,26.32
2018-09-10T12:30:36.375Z,26.03
2018-09-10T12:33:05.478Z,26.19
2018-09-10T12:35:34.579Z,26.16
2018-09-10T12:38:04.007Z,26.15
2018-09-10T12:40:32.899Z,26.07
2018-09-10T12:43:02.005Z,26.23
2018-09-10T12:45:31.223Z,26.45
2018-09-10T12:48:00.408Z,26.69
2018-09-10T12:50:29.367Z,26.75
2018-09-10T12:52:58.387Z,26.79
2018-09-10T12:55:27.461Z,26.82
2018-09-10T12:57:56.625Z,26.99
2018-09-10T13:00:26.066Z,26.88
2018-09-10T13:02:54.927Z,26.23
2018-09-10T13:05:24.043Z,26.20
2018-09-10T13:07:53.089Z,26.61
2018-09-10T13:10:22.047Z,26.78
2018-09-10T13:12:51.047Z,26.68
2018-09-10T13:15:20.375Z,27.03
2018-09-10T13:17:49.348Z,26.97
2018-09-10T13:20:18.255Z,26.78
2018-09-10T13:22:47.347Z,26.52
2018-09-10T13:25:16.615Z,26.49
2018-09-10T13:27:45.751Z,26.73
2018-09-10T13:30:14.963Z,26.32
2018-09-10T13:32:43.828Z,26.39
2018-09-10T13:35:13.031Z,26.44
2018-09-10T13:37:43.482Z,26.31
2018-09-10T13:40:12.527Z,26.34
2018-09-10T13:42:41.546Z,26.19
2018-09-10T13:45:10.871Z,25.89
2018-09-10T13:47:39.950Z,25.81
2018-09-10T13:50:09.142Z,25.68
2018-09-10T13:52:38.674Z,25.60
2018-09-10T13:55:07.902Z,25.81
2018-09-10T13:57:36.943Z,25.76
2018-09-10T14:00:06.303Z,25.64
2018-09-10T14:02:36.190Z,25.52
2018-09-10T14:05:05.265Z,25.74
2018-09-10T14:07:34.274Z,25.72
2018-09-10T14:10:03.448Z,25.60
2018-09-10T14:12:32.339Z,25.55
2018-09-10T14:15:02.029Z,25.25
2018-09-10T14:17:31.066Z,25.23
2018-09-10T14:20:00.047Z,25.40
2018-09-10T14:22:29.679Z,25.41
2018-09-10T14:24:58.763Z,25.15
2018-09-10T14:27:27.993Z,24.90
2018-09-10T14:29:57.070Z,24.79
2018-09-10T14:32:26.034Z,24.73
2018-09-10T14:34:54.939Z,24.68
2018-09-10T14:37:24.368Z,24.74
2018-09-10T14:39:53.547Z,24.75
2018-09-10T14:42:22.664Z,24.79
2018-09-10T14:44:52.194Z,24.85
2018-09-10T14:47:21.326Z,24.72
2018-09-10T14:49:50.551Z,24.75
2018-09-10T14:52:19.568Z,24.68
2018-09-10T14:54:48.644Z,24.63
2018-09-10T14:57:17.720Z,24.76
2018-09-10T14:59:47.380Z,24.62
2018-09-10T15:02:16.560Z,24.74
2018-09-10T15:04:45.539Z,24.73
2018-09-10T15:07:15.158Z,24.68
2018-09-10T15:09:44.254Z,24.56
2018-09-10T15:12:13.283Z,24.54
2018-09-10T15:14:42.446Z,24.47
2018-09-10T15:17:11.527Z,24.38
2018-09-10T15:19:40.639Z,24.27
2018-09-10T15:22:09.933Z,24.25
2018-09-10T15:24:38.889Z,24.21
2018-09-10T15:27:07.810Z,24.27
2018-09-10T15:29:37.258Z,24.18
2018-09-10T15:32:06.508Z,24.20
2018-09-10T15:34:35.679Z,23.94
2018-09-10T15:37:05.115Z,23.83
2018-09-10T15:39:33.898Z,23.76
2018-09-10T15:42:02.771Z,23.57
2018-09-10T15:44:32.252Z,23.46
2018-09-10T15:47:01.204Z,23.34
2018-09-10T15:49:30.910Z,23.34
2018-09-10T15:52:00.248Z,23.22
2018-09-10T15:54:29.476Z,23.16
2018-09-10T15:56:58.600Z,23.18
2018-09-10T15:59:28.279Z,23.07
2018-09-10T16:01:57.338Z,23.09
2018-09-10T16:04:26.194Z,22.95
2018-09-10T16:06:55.034Z,22.98
2018-09-10T16:09:24.105Z,22.86
2018-09-10T16:11:53.167Z,22.74
2018-09-10T16:14:22.571Z,22.67
2018-09-10T16:16:51.573Z,22.63
2018-09-10T16:19:20.496Z,22.55
2018-09-10T16:21:49.494Z,22.43
2018-09-10T16:24:18.563Z,22.37
2018-09-10T16:26:47.811Z,22.32
2018-09-10T16:29:17.083Z,22.29
2018-09-10T16:31:45.899Z,22.31
2018-09-10T16:34:14.979Z,22.22
2018-09-10T16:36:43.891Z,22.12
2018-09-10T16:39:13.294Z,22.00
2018-09-10T16:41:42.350Z,21.92
2018-09-10T16:44:11.702Z,21.87
2018-09-10T16:46:40.735Z,21.75
2018-09-10T16:49:09.939Z,21.72
2018-09-10T16:51:39.284Z,21.68
2018-09-10T16:54:08.473Z,21.58
2018-09-10T16:56:37.450Z,21.53
2018-09-10T16:59:06.881Z,21.44
2018-09-10T17:01:35.761Z,21.41
2018-09-10T17:04:04.756Z,21.40
2018-09-10T17:06:34.171Z,21.42
2018-09-10T17:09:03.207Z,21.34
2018-09-10T17:11:32.335Z,21.28
2018-09-10T17:14:01.479Z,21.17
2018-09-10T17:16:30.610Z,21.14
2018-09-10T17:18:59.507Z,21.12
2018-09-10T17:21:28.948Z,21.01
2018-09-10T17:23:57.984Z,20.94
2018-09-10T17:26:26.919Z,20.96
2018-09-10T17:28:56.251Z,20.87
2018-09-10T17:31:25.427Z,20.81
2018-09-10T17:33:54.728Z,20.78
2018-09-10T17:36:24.194Z,20.80
2018-09-10T17:38:53.111Z,20.77
2018-09-10T17:41:22.214Z,20.73
2018-09-10T17:43:51.114Z,20.74
2018-09-10T17:46:20.036Z,20.69
2018-09-10T17:48:49.079Z,20.71
2018-09-10T17:51:18.618Z,20.64
2018-09-10T17:53:47.575Z,20.52
2018-09-10T17:56:16.600Z,20.48
2018-09-10T17:58:46.208Z,20.41
2018-09-10T18:01:15.324Z,20.35
2018-09-10T18:03:44.307Z,20.30
2018-09-10T18:06:13.511Z,20.29
2018-09-10T18:08:42.236Z,20.22
2018-09-10T18:11:11.462Z,20.24
2018-09-10T18:13:41.509Z,20.17
2018-09-10T18:16:10.495Z,20.04
2018-09-10T18:18:39.507Z,20.01
2018-09-10T18:21:08.885Z,19.99
2018-09-10T18:23:37.911Z,20.01
2018-09-10T18:26:06.999Z,19.97
2018-09-10T18:28:36.286Z,19.92
2018-09-10T18:31:05.287Z,19.86
2018-09-10T18:33:34.421Z,19.83
2018-09-10T18:36:03.562Z,19.80
2018-09-10T18:38:32.455Z,19.66
2018-09-10T18:41:01.429Z,19.59
2018-09-10T18:43:31.003Z,19.54
2018-09-10T18:46:00.037Z,19.48
2018-09-10T18:48:29.037Z,19.43
2018-09-10T18:50:58.194Z,19.37
2018-09-10T18:53:27.239Z,19.30
2018-09-10T18:55:56.379Z,19.22
2018-09-10T18:58:25.582Z,19.17
2018-09-10T19:00:54.668Z,19.14
2018-09-10T19:03:23.659Z,19.12
2018-09-10T19:05:52.907Z,19.09
2018-09-10T19:08:21.999Z,19.08
2018-09-10T19:10:51.255Z,18.96
2018-09-10T19:13:20.667Z,18.90
2018-09-10T19:15:50.016Z,18.78
2018-09-10T19:18:19.508Z,18.73
2018-09-10T19:20:48.877Z,18.68
2018-09-10T19:23:17.951Z,18.64
2018-09-10T19:25:47.062Z,18.60
2018-09-10T19:28:16.678Z,18.59
2018-09-10T19:30:45.623Z,18.54
2018-09-10T19:33:14.760Z,18.47
2018-09-10T19:35:43.667Z,18.47
2018-09-10T19:38:12.914Z,18.48
2018-09-10T19:40:41.855Z,18.46
2018-09-10T19:43:11.782Z,18.37
2018-09-10T19:45:40.729Z,18.44
2018-09-10T19:48:09.746Z,18.30
2018-09-10T19:50:38.849Z,18.27
2018-09-10T19:53:08.587Z,18.25
2018-09-10T19:55:37.649Z,18.26
2018-09-10T19:58:07.014Z,18.19
2018-09-10T20:00:35.939Z,18.16
2018-09-10T20:03:04.994Z,18.15
2018-09-10T20:05:34.566Z,18.18
2018-09-10T20:08:03.486Z,18.16
2018-09-10T20:10:32.614Z,18.15
2018-09-10T20:13:02.061Z,18.09
2018-09-10T20:15:31.255Z,18.14
2018-09-10T20:18:00.247Z,18.14
2018-09-10T20:20:29.510Z,18.11
2018-09-10T20:22:58.522Z,18.05
2018-09-10T20:25:27.740Z,18.03
2018-09-10T20:27:56.783Z,18.01
2018-09-10T20:30:25.858Z,18.02
2018-09-10T20:32:54.619Z,18.10
2018-09-10T20:35:23.858Z,18.07
2018-09-10T20:37:52.887Z,18.04
2018-09-10T20:40:21.882Z,18.02
2018-09-10T20:42:51.271Z,18.04
2018-09-10T20:45:20.387Z,18.04
2018-09-10T20:47:49.398Z,18.05
2018-09-10T20:50:18.502Z,18.07
2018-09-10T20:52:47.497Z,18.00
2018-09-10T20:55:16.600Z,17.98
2018-09-10T20:57:45.688Z,17.93
2018-09-10T21:00:14.744Z,17.92
2018-09-10T21:02:43.783Z,17.93
2018-09-10T21:05:13.298Z,17.87
2018-09-10T21:07:42.249Z,17.85
2018-09-10T21:10:11.329Z,17.83
2018-09-10T21:12:40.786Z,17.78
2018-09-10T21:15:10.036Z,17.76
2018-09-10T21:17:38.995Z,17.71
2018-09-10T21:20:08.060Z,17.67
2018-09-10T21:22:36.812Z,17.69
2018-09-10T21:25:06.199Z,17.65
2018-09-10T21:27:35.445Z,17.64
2018-09-10T21:30:04.795Z,17.60
2018-09-10T21:32:33.814Z,17.49
2018-09-10T21:35:03.063Z,17.46
2018-09-10T21:37:32.030Z,17.46
2018-09-10T21:40:01.496Z,17.49
2018-09-10T21:42:30.836Z,17.50
2018-09-10T21:44:59.774Z,17.43
2018-09-10T21:47:28.707Z,17.40
2018-09-10T21:49:58.005Z,17.34
2018-09-10T21:52:26.879Z,17.23
2018-09-10T21:54:55.967Z,17.27
2018-09-10T21:57:25.310Z,17.17
2018-09-10T21:59:54.470Z,17.09
2018-09-10T22:02:23.578Z,17.09
2018-09-10T22:04:53.110Z,17.03
2018-09-10T22:07:22.406Z,16.98
2018-09-10T22:09:51.401Z,16.92
2018-09-10T22:12:21.929Z,16.87
2018-09-10T22:14:51.032Z,16.88
2018-09-10T22:17:20.226Z,16.76
2018-09-10T22:19:49.646Z,16.74
2018-09-10T22:22:18.706Z,16.66
2018-09-10T22:24:47.882Z,16.71
2018-09-10T22:27:17.130Z,16.74
2018-09-10T22:29:46.107Z,16.66
2018-09-10T22:32:14.926Z,16.69
2018-09-10T22:34:44.435Z,16.55
2018-09-10T22:37:13.423Z,16.48
2018-09-10T22:39:42.463Z,16.47
2018-09-10T22:42:11.409Z,16.42
2018-09-10T22:44:40.695Z,16.36
2018-09-10T22:47:09.666Z,16.30
2018-09-10T22:49:39.136Z,16.28
2018-09-10T22:52:08.271Z,16.29
2018-09-10T22:54:37.186Z,16.31
2018-09-10T22:57:06.439Z,16.21
2018-09-10T22:59:35.654Z,16.17
2018-09-10T23:02:04.726Z,16.14
2018-09-10T23:04:34.055Z,16.10
2018-09-10T23:07:03.254Z,16.09
2018-09-10T23:09:32.293Z,16.15
2018-09-10T23:12:01.482Z,16.11
2018-09-10T23:14:30.432Z,16.07
2018-09-10T23:16:59.542Z,16.03
2018-09-10T23:19:28.851Z,16.02
2018-09-10T23:21:57.767Z,16.04
2018-09-10T23:24:26.860Z,16.03
2018-09-10T23:26:56.179Z,16.07
2018-09-10T23:29:25.231Z,16.13
2018-09-10T23:31:54.222Z,16.15
2018-09-10T23:34:23.354Z,16.17
2018-09-10T23:36:52.123Z,16.16
2018-09-10T23:39:21.314Z,16.15
2018-09-10T23:41:50.672Z,16.13
2018-09-10T23:44:19.946Z,16.12
2018-09-10T23:46:48.594Z,16.07
2018-09-10T23:49:17.832Z,16.02
2018-09-10T23:51:46.929Z,16.01
2018-09-10T23:54:15.923Z,16.03
2018-09-10T23:56:44.962Z,16.02
2018-09-10T23:59:14.137Z,16.00
